Time;durP1;ratioP1;P1;durP2;ratioP2;P2;SDS_P1;SDS_P2;PMS_P1;PMS_P2;Temp;Humidity;BMP_temperature;BMP_pressure;BME280_temperature;BME280_humidity;BME280_pressure;Samples;Min_cycle;Max_cycle;Signal;HPM_P1;HPM_P2
2020/12/13 00:01:07;;;;;;;16.15;10.93;;;11.30;99.90;;;;;;5109090;28;20118;-65
2020/12/13 00:03:35;;;;;;;15.65;9.55;;;11.30;99.90;;;;;;5076055;28;20430;-65
2020/12/13 00:06:02;;;;;;;23.33;10.65;;;11.30;99.90;;;;;;5091777;28;20048;-66
2020/12/13 00:08:30;;;;;;;17.23;9.80;;;11.30;99.90;;;;;;5104511;28;20169;-66
2020/12/13 00:10:57;;;;;;;12.25;7.38;;;11.30;99.90;;;;;;5104024;28;20039;-66
2020/12/13 00:13:27;;;;;;;11.82;6.55;;;11.30;99.90;;;;;;5090805;28;20514;-66
2020/12/13 00:15:55;;;;;;;9.23;6.57;;;11.30;99.90;;;;;;5104229;28;20052;-65
2020/12/13 00:18:25;;;;;;;15.93;8.52;;;11.20;99.90;;;;;;5090052;28;20541;-66
2020/12/13 00:20:53;;;;;;;13.88;9.52;;;11.30;99.90;;;;;;5101754;28;20047;-66
2020/12/13 00:23:20;;;;;;;14.02;9.60;;;11.20;99.90;;;;;;5091713;28;20127;-66
2020/12/13 00:25:48;;;;;;;16.52;9.18;;;11.20;99.90;;;;;;5091901;28;20046;-66
2020/12/13 00:28:19;;;;;;;13.35;8.13;;;11.10;99.90;;;;;;5099901;28;20048;-66
2020/12/13 00:30:49;;;;;;;16.92;7.40;;;11.00;99.90;;;;;;5108453;28;20079;-66
2020/12/13 00:33:20;;;;;;;7.93;4.75;;;10.80;99.90;;;;;;5092613;28;20059;-66
2020/12/13 00:35:47;;;;;;;11.13;5.32;;;10.80;99.90;;;;;;5096403;28;20047;-66
2020/12/13 00:38:15;;;;;;;11.38;4.82;;;10.80;99.90;;;;;;5089611;28;20059;-65
2020/12/13 00:40:42;;;;;;;10.13;4.47;;;10.80;99.90;;;;;;5092425;28;20582;-65
2020/12/13 00:43:13;;;;;;;8.70;4.10;;;10.80;99.90;;;;;;5105800;28;20055;-66
2020/12/13 00:45:41;;;;;;;7.15;4.13;;;10.90;99.90;;;;;;5110816;28;20054;-65
2020/12/13 00:48:09;;;;;;;8.30;4.40;;;10.90;99.90;;;;;;5106508;28;20044;-66
2020/12/13 00:50:40;;;;;;;11.88;4.40;;;10.80;99.90;;;;;;5083237;28;20058;-66
2020/12/13 00:53:08;;;;;;;8.75;4.68;;;10.80;99.90;;;;;;5104917;28;20508;-66
2020/12/13 00:55:36;;;;;;;6.85;3.85;;;10.80;99.90;;;;;;5078761;28;20076;-66
2020/12/13 00:58:08;;;;;;;8.40;4.28;;;10.80;99.90;;;;;;5079128;28;20047;-64
2020/12/13 01:00:36;;;;;;;12.10;4.57;;;10.90;99.90;;;;;;5104345;28;20048;-66
2020/12/13 01:03:06;;;;;;;7.13;3.67;;;10.90;99.90;;;;;;5094314;28;20036;-65
2020/12/13 01:05:37;;;;;;;7.88;4.43;;;10.90;99.90;;;;;;5104278;28;20127;-66
2020/12/13 01:08:08;;;;;;;5.60;3.72;;;10.90;99.90;;;;;;5095485;28;20051;-64
2020/12/13 01:10:37;;;;;;;8.40;3.55;;;10.90;99.90;;;;;;5104739;28;20051;-66
2020/12/13 01:13:04;;;;;;;6.72;3.28;;;10.80;99.90;;;;;;5102742;28;20123;-66
2020/12/13 01:15:31;;;;;;;6.75;3.70;;;10.80;99.90;;;;;;5085722;28;20051;-66
2020/12/13 01:18:02;;;;;;;7.20;3.63;;;10.70;99.90;;;;;;5105966;28;20059;-64
2020/12/13 01:20:29;;;;;;;5.03;3.03;;;10.70;99.90;;;;;;5077448;28;20052;-63
2020/12/13 01:23:01;;;;;;;13.55;3.45;;;10.70;99.90;;;;;;5092210;28;20065;-66
2020/12/13 01:25:29;;;;;;;6.90;3.25;;;10.60;99.90;;;;;;5103290;28;20044;-65
2020/12/13 01:27:56;;;;;;;5.53;3.33;;;10.70;99.90;;;;;;5074857;28;20095;-66
2020/12/13 01:30:24;;;;;;;7.18;4.47;;;10.70;99.90;;;;;;5099504;28;20059;-66
2020/12/13 01:32:51;;;;;;;7.32;3.00;;;10.70;99.90;;;;;;5074450;28;20457;-66
2020/12/13 01:35:19;;;;;;;7.70;3.25;;;10.70;99.90;;;;;;5067733;28;20062;-65
2020/12/13 01:37:46;;;;;;;6.07;3.05;;;10.80;99.90;;;;;;5105092;28;20059;-66
2020/12/13 01:40:14;;;;;;;7.53;3.60;;;10.70;99.90;;;;;;5083126;28;20121;-65
2020/12/13 01:42:43;;;;;;;10.02;4.78;;;10.80;99.90;;;;;;5099549;28;20659;-66
2020/12/13 01:45:18;;;;;;;8.32;4.95;;;10.80;99.90;;;;;;5091018;28;20369;-66
2020/12/13 01:47:50;;;;;;;9.45;5.53;;;10.80;99.90;;;;;;5085015;28;20108;-65
2020/12/13 01:53:15;;;;;;;6.93;4.45;;;10.80;99.90;;;;;;5093301;28;20499;-66
2020/12/13 01:55:45;;;;;;;7.72;4.55;;;10.60;99.90;;;;;;5082733;28;20603;-66
2020/12/13 01:58:37;;;;;;;5.45;3.90;;;10.60;99.90;;;;;;5081269;28;20057;-65
2020/12/13 02:01:07;;;;;;;7.57;4.30;;;10.60;99.90;;;;;;5084465;28;20124;-65
2020/12/13 02:03:48;;;;;;;6.85;3.90;;;10.60;99.90;;;;;;5080170;28;20385;-62
2020/12/13 02:06:25;;;;;;;7.65;4.25;;;10.60;99.90;;;;;;5092045;28;20488;-65
2020/12/13 02:08:55;;;;;;;10.93;3.95;;;10.60;99.90;;;;;;5103466;28;20112;-65
2020/12/13 02:11:23;;;;;;;8.40;3.53;;;10.50;99.90;;;;;;5102912;28;20059;-65
2020/12/13 02:13:53;;;;;;;6.38;3.25;;;10.50;99.90;;;;;;5109494;28;20056;-66
2020/12/13 02:16:23;;;;;;;5.63;2.78;;;10.40;99.90;;;;;;5094694;28;20044;-65
2020/12/13 02:18:51;;;;;;;8.77;3.30;;;10.40;99.90;;;;;;5097403;28;20051;-65
2020/12/13 02:21:20;;;;;;;5.88;3.28;;;10.40;99.90;;;;;;5053850;28;20144;-66
2020/12/13 02:23:48;;;;;;;5.50;3.03;;;10.40;99.90;;;;;;5099020;28;20054;-64
2020/12/13 02:26:16;;;;;;;6.90;3.58;;;10.50;99.90;;;;;;5084071;28;20506;-64
2020/12/13 02:28:45;;;;;;;7.30;3.17;;;10.50;99.90;;;;;;5089326;28;20058;-65
2020/12/13 02:31:13;;;;;;;4.88;3.08;;;10.60;99.90;;;;;;5106782;28;20555;-64
2020/12/13 02:33:41;;;;;;;7.03;3.58;;;10.60;99.90;;;;;;5091211;28;20135;-66
2020/12/13 02:36:09;;;;;;;7.13;4.00;;;10.60;99.90;;;;;;5079060;28;20093;-65
2020/12/13 02:38:36;;;;;;;9.32;4.65;;;10.50;99.90;;;;;;5101346;28;20055;-66
2020/12/13 02:41:04;;;;;;;9.48;5.95;;;10.60;99.90;;;;;;5091360;28;20425;-65
2020/12/13 02:43:31;;;;;;;11.32;6.53;;;10.50;99.90;;;;;;5095466;28;20048;-65
2020/12/13 02:45:59;;;;;;;10.60;6.72;;;10.50;99.90;;;;;;5106872;28;20080;-65
2020/12/13 02:48:26;;;;;;;9.90;6.68;;;10.50;99.90;;;;;;5096236;28;20050;-65
2020/12/13 02:50:54;;;;;;;8.75;6.35;;;10.50;99.90;;;;;;5097838;28;20059;-65
2020/12/13 02:53:21;;;;;;;13.70;8.48;;;10.50;99.90;;;;;;5092621;28;20051;-65
2020/12/13 02:55:49;;;;;;;11.85;7.90;;;10.50;99.90;;;;;;5102649;28;20048;-65
2020/12/13 02:58:16;;;;;;;14.65;7.80;;;10.50;99.90;;;;;;5091086;28;20048;-65
2020/12/13 03:00:43;;;;;;;13.50;8.10;;;10.50;99.90;;;;;;5095281;28;20437;-65
2020/12/13 03:03:11;;;;;;;12.40;7.40;;;10.40;99.90;;;;;;5090187;28;20072;-65
2020/12/13 03:05:38;;;;;;;15.75;10.25;;;10.20;99.90;;;;;;5110539;28;20048;-65
2020/12/13 03:08:07;;;;;;;16.27;9.18;;;10.20;99.90;;;;;;5091970;28;20074;-65
2020/12/13 03:10:35;;;;;;;15.55;9.90;;;10.20;99.90;;;;;;5081678;28;20109;-66
2020/12/13 03:13:02;;;;;;;23.60;11.00;;;10.10;99.90;;;;;;5089401;28;20071;-66
2020/12/13 03:15:30;;;;;;;19.58;10.88;;;10.10;99.90;;;;;;5100523;28;20130;-65
2020/12/13 03:17:57;;;;;;;20.45;12.25;;;10.00;99.90;;;;;;5108618;28;20044;-66
2020/12/13 03:20:24;;;;;;;21.75;13.23;;;9.90;99.90;;;;;;5092145;28;20075;-65
2020/12/13 03:22:52;;;;;;;27.10;13.98;;;9.90;99.90;;;;;;5104789;28;20048;-65
2020/12/13 03:25:19;;;;;;;35.78;14.50;;;9.90;99.90;;;;;;5089310;28;20048;-66
2020/12/13 03:27:47;;;;;;;25.25;14.23;;;9.90;99.90;;;;;;5109471;28;20048;-66
2020/12/13 03:30:14;;;;;;;21.92;14.10;;;9.90;99.90;;;;;;5074189;28;20043;-65
2020/12/13 03:32:42;;;;;;;22.98;14.63;;;9.80;99.90;;;;;;5106906;28;20107;-65
2020/12/13 03:35:09;;;;;;;24.77;15.00;;;9.90;99.90;;;;;;5092375;28;20141;-66
2020/12/13 03:37:37;;;;;;;24.50;15.77;;;9.90;99.90;;;;;;5108199;28;20079;-65
2020/12/13 03:40:06;;;;;;;22.27;15.68;;;9.90;99.90;;;;;;5096784;28;20047;-66
2020/12/13 03:42:34;;;;;;;25.92;16.08;;;9.80;99.90;;;;;;5090082;28;20126;-65
2020/12/13 03:45:01;;;;;;;21.55;14.68;;;9.80;99.90;;;;;;5090192;28;20058;-66
2020/12/13 03:47:28;;;;;;;24.08;16.30;;;9.70;99.90;;;;;;5061700;28;20055;-64
2020/12/13 03:49:56;;;;;;;23.10;15.70;;;9.70;99.90;;;;;;5090564;28;20063;-66
2020/12/13 03:52:23;;;;;;;29.67;15.30;;;9.60;99.90;;;;;;5102852;28;20063;-66
2020/12/13 03:54:51;;;;;;;28.65;14.35;;;9.60;99.90;;;;;;5107025;28;20051;-66
2020/12/13 03:57:18;;;;;;;23.98;15.98;;;9.50;99.90;;;;;;5108571;28;20111;-66
2020/12/13 03:59:46;;;;;;;20.73;14.35;;;9.50;99.90;;;;;;5109630;28;20515;-65
2020/12/13 04:02:13;;;;;;;23.70;14.38;;;9.50;99.90;;;;;;5089938;28;20051;-65
2020/12/13 04:04:41;;;;;;;21.60;14.50;;;9.40;99.90;;;;;;5090040;28;20040;-66
2020/12/13 04:07:08;;;;;;;25.50;14.77;;;9.40;99.90;;;;;;5089965;28;20511;-65
2020/12/13 04:09:36;;;;;;;20.15;13.93;;;9.30;99.90;;;;;;5089566;28;20406;-66
2020/12/13 04:12:03;;;;;;;20.92;13.60;;;9.30;99.90;;;;;;5087817;28;20060;-65
2020/12/13 04:14:31;;;;;;;22.48;14.27;;;9.30;99.90;;;;;;5100391;28;20457;-66
2020/12/13 04:16:58;;;;;;;21.17;13.85;;;9.30;99.90;;;;;;5108970;28;20365;-65
2020/12/13 04:19:26;;;;;;;23.48;15.05;;;9.20;99.90;;;;;;5102165;28;20048;-66
2020/12/13 04:21:53;;;;;;;24.83;14.00;;;9.20;99.90;;;;;;5072451;28;20052;-67
2020/12/13 04:24:22;;;;;;;22.98;14.93;;;9.30;99.90;;;;;;5090736;28;20051;-66
2020/12/13 04:26:50;;;;;;;23.13;14.32;;;9.20;99.90;;;;;;5097033;28;20050;-66
2020/12/13 04:29:17;;;;;;;22.27;13.45;;;9.30;99.90;;;;;;5111838;28;20052;-66
2020/12/13 04:31:45;;;;;;;25.30;13.32;;;9.30;99.90;;;;;;5111913;28;20133;-66
2020/12/13 04:34:13;;;;;;;21.05;14.55;;;9.30;99.90;;;;;;5113309;28;20159;-63
2020/12/13 04:36:41;;;;;;;22.75;13.55;;;9.30;99.90;;;;;;5095448;28;20087;-65
2020/12/13 04:39:09;;;;;;;21.90;14.25;;;9.30;99.90;;;;;;5093027;28;20449;-66
2020/12/13 04:41:36;;;;;;;29.63;15.25;;;9.30;99.90;;;;;;5075608;28;20487;-65
2020/12/13 04:44:04;;;;;;;20.70;12.75;;;9.30;99.90;;;;;;5091393;28;20070;-65
2020/12/13 04:46:31;;;;;;;25.02;14.88;;;9.20;99.90;;;;;;5091998;28;20040;-66
2020/12/13 04:48:59;;;;;;;23.38;14.82;;;9.20;99.90;;;;;;5091663;28;20051;-65
2020/12/13 04:51:27;;;;;;;25.90;15.13;;;9.20;99.90;;;;;;5097051;28;20052;-66
2020/12/13 04:54:06;;;;;;;25.58;16.60;;;9.20;99.90;;;;;;5111411;28;20044;-65
2020/12/13 04:56:35;;;;;;;25.35;15.70;;;9.20;99.90;;;;;;5112080;28;20088;-65
2020/12/13 04:59:04;;;;;;;22.65;14.57;;;9.10;99.90;;;;;;5111166;28;20142;-65
2020/12/13 05:01:32;;;;;;;25.67;15.13;;;9.10;99.90;;;;;;5075600;28;20098;-65
2020/12/13 05:04:00;;;;;;;24.60;14.07;;;9.10;99.90;;;;;;5075329;28;20055;-65
2020/12/13 05:06:29;;;;;;;22.02;12.98;;;9.00;99.90;;;;;;5092641;28;20044;-66
2020/12/13 05:08:57;;;;;;;23.02;13.48;;;9.10;99.90;;;;;;5106729;28;20046;-66
2020/12/13 05:11:25;;;;;;;20.55;13.20;;;9.10;99.90;;;;;;5111363;28;20076;-65
2020/12/13 05:13:52;;;;;;;22.27;12.65;;;9.10;99.90;;;;;;5111188;28;20443;-65
2020/12/13 05:16:20;;;;;;;19.33;12.15;;;9.10;99.90;;;;;;5103156;28;20047;-66
2020/12/13 05:18:47;;;;;;;20.55;12.07;;;9.10;99.90;;;;;;5091001;28;20048;-66
2020/12/13 05:21:22;;;;;;;26.25;14.85;;;9.10;99.90;;;;;;5091267;28;20044;-64
2020/12/13 05:23:50;;;;;;;21.23;12.82;;;9.10;99.90;;;;;;5095420;28;20044;-65
2020/12/13 05:26:20;;;;;;;21.48;13.07;;;9.10;99.90;;;;;;5111125;28;20068;-66
2020/12/13 05:28:52;;;;;;;21.88;12.68;;;9.10;99.90;;;;;;5111871;28;20051;-65
2020/12/13 05:31:23;;;;;;;20.52;12.70;;;9.10;99.90;;;;;;5100972;28;20105;-66
2020/12/13 05:33:54;;;;;;;20.92;11.95;;;9.20;99.90;;;;;;5078945;28;20044;-66
2020/12/13 05:36:24;;;;;;;17.67;11.43;;;9.20;99.90;;;;;;5093968;28;20056;-66
2020/12/13 05:38:59;;;;;;;18.52;11.55;;;9.10;99.90;;;;;;5102090;28;20056;-66
2020/12/13 05:41:36;;;;;;;19.23;11.40;;;9.10;99.90;;;;;;5095144;28;20093;-65
2020/12/13 05:54:22;;;;;;;21.48;11.18;;;9.20;99.90;;;;;;5089033;28;20060;-66
2020/12/13 05:56:56;;;;;;;24.67;14.10;;;9.20;99.90;;;;;;5099921;28;20048;-66
2020/12/13 05:59:25;;;;;;;18.10;11.52;;;9.30;99.90;;;;;;5110207;28;20051;-66
2020/12/13 06:01:56;;;;;;;16.58;9.95;;;9.30;99.90;;;;;;5110374;28;20051;-66
2020/12/13 06:04:33;;;;;;;21.15;11.88;;;9.30;99.90;;;;;;5060760;28;20553;-66
2020/12/13 06:07:03;;;;;;;18.50;11.25;;;9.30;99.90;;;;;;5111377;28;20470;-66
2020/12/13 06:09:40;;;;;;;22.95;11.35;;;9.20;99.90;;;;;;5082753;28;20046;-66
2020/12/13 06:12:10;;;;;;;22.77;13.18;;;9.30;99.90;;;;;;5081821;28;20130;-66
2020/12/13 06:14:43;;;;;;;20.92;12.00;;;9.30;99.90;;;;;;5093769;28;20059;-66
2020/12/13 06:17:11;;;;;;;17.40;10.68;;;9.30;99.90;;;;;;5111067;28;20480;-66
2020/12/13 06:19:41;;;;;;;17.65;12.23;;;9.30;99.90;;;;;;5107774;28;20514;-66
2020/12/13 06:22:13;;;;;;;21.52;11.43;;;9.30;99.90;;;;;;5090027;28;20044;-66
2020/12/13 06:24:45;;;;;;;19.77;11.25;;;9.30;99.90;;;;;;5109996;28;20598;-66
2020/12/13 06:27:13;;;;;;;21.67;12.27;;;9.20;99.90;;;;;;5111110;28;20132;-65
2020/12/13 06:29:45;;;;;;;20.58;10.73;;;9.30;99.90;;;;;;5090433;28;20055;-66
2020/12/13 06:32:12;;;;;;;24.35;13.40;;;9.30;99.90;;;;;;5090081;28;20048;-65
2020/12/13 06:34:47;;;;;;;32.55;12.23;;;9.40;99.90;;;;;;5090262;28;20113;-65
2020/12/13 06:37:14;;;;;;;21.42;13.65;;;9.40;99.90;;;;;;5103500;28;20426;-65
2020/12/13 06:39:42;;;;;;;21.25;12.95;;;9.40;99.90;;;;;;5109356;28;20043;-66
2020/12/13 06:42:13;;;;;;;23.33;12.38;;;9.40;99.90;;;;;;5105039;28;20051;-66
2020/12/13 06:44:40;;;;;;;25.77;12.23;;;9.40;99.90;;;;;;5097972;28;20100;-66
2020/12/13 06:47:42;;;;;;;20.48;11.32;;;9.40;99.90;;;;;;5078031;28;20036;-65
2020/12/13 06:50:24;;;;;;;21.50;12.10;;;9.50;99.90;;;;;;5078957;28;20036;-66
2020/12/13 06:52:53;;;;;;;22.42;12.20;;;9.50;99.90;;;;;;5083233;28;20083;-66
2020/12/13 06:55:32;;;;;;;18.90;11.55;;;9.50;99.90;;;;;;5069915;28;20530;-66
2020/12/13 06:58:04;;;;;;;19.67;12.02;;;9.50;99.90;;;;;;5088313;28;20052;-66
2020/12/13 07:00:49;;;;;;;20.38;12.52;;;9.50;99.90;;;;;;5094348;28;20058;-66
2020/12/13 07:03:26;;;;;;;20.73;12.18;;;9.50;99.90;;;;;;5109031;28;20051;-65
2020/12/13 07:05:57;;;;;;;20.70;10.52;;;9.60;99.90;;;;;;5093658;28;20068;-66
2020/12/13 07:08:26;;;;;;;23.15;11.05;;;9.70;99.90;;;;;;5066972;28;20494;-65
2020/12/13 07:10:54;;;;;;;19.23;10.88;;;9.70;99.90;;;;;;5109210;28;20043;-65
2020/12/13 07:13:24;;;;;;;19.60;11.48;;;9.80;99.90;;;;;;5109003;28;20448;-65
2020/12/13 07:16:08;;;;;;;20.63;12.10;;;9.80;99.90;;;;;;5110107;28;20035;-65
2020/12/13 07:18:37;;;;;;;14.13;9.23;;;9.80;99.90;;;;;;5089885;28;20104;-65
2020/12/13 07:21:05;;;;;;;20.65;11.93;;;9.90;99.90;;;;;;5089265;28;20044;-66
2020/12/13 07:23:35;;;;;;;22.90;10.88;;;10.00;99.90;;;;;;5089285;28;20036;-67
2020/12/13 07:26:03;;;;;;;13.30;8.82;;;10.10;99.90;;;;;;5103067;28;20047;-65
2020/12/13 07:28:31;;;;;;;21.95;9.05;;;10.10;99.90;;;;;;5109336;28;20058;-65
2020/12/13 07:31:03;;;;;;;16.00;10.48;;;10.30;99.90;;;;;;5109057;28;20040;-65
2020/12/13 07:33:31;;;;;;;16.35;9.82;;;10.40;99.90;;;;;;5067857;28;20057;-65
2020/12/13 07:35:59;;;;;;;30.65;15.88;;;10.50;99.90;;;;;;5090414;28;20051;-65
2020/12/13 07:38:28;;;;;;;22.15;13.35;;;10.50;99.90;;;;;;5088472;28;20176;-66
2020/12/13 07:40:57;;;;;;;20.15;11.35;;;10.50;99.90;;;;;;5092406;28;20491;-64
2020/12/13 07:43:25;;;;;;;16.08;10.07;;;10.60;99.90;;;;;;5091083;28;20036;-67
2020/12/13 07:45:53;;;;;;;17.98;11.23;;;10.80;99.90;;;;;;5089190;28;20445;-66
2020/12/13 07:48:20;;;;;;;18.33;10.43;;;10.90;99.90;;;;;;5071800;28;20145;-65
2020/12/13 07:50:48;;;;;;;14.77;9.18;;;11.00;99.90;;;;;;5108801;28;20122;-65
2020/12/13 07:53:26;;;;;;;15.75;10.05;;;11.10;99.90;;;;;;5112973;28;20040;-66
2020/12/13 07:55:54;;;;;;;21.85;10.15;;;11.10;99.90;;;;;;5112764;28;20132;-66
2020/12/13 07:58:22;;;;;;;13.88;9.32;;;11.20;99.90;;;;;;5079746;28;20122;-66
2020/12/13 08:00:49;;;;;;;16.25;10.50;;;11.30;99.90;;;;;;5072664;28;20569;-65
2020/12/13 08:03:17;;;;;;;11.75;8.25;;;11.50;99.90;;;;;;5084934;28;20573;-66
2020/12/13 08:05:44;;;;;;;15.30;9.98;;;11.60;99.90;;;;;;5101033;28;20052;-66
2020/12/13 08:08:12;;;;;;;16.90;9.68;;;11.50;99.90;;;;;;5112059;28;20044;-64
2020/12/13 08:10:39;;;;;;;16.00;9.35;;;11.50;99.90;;;;;;5100452;28;20040;-66
2020/12/13 08:13:07;;;;;;;20.65;9.65;;;11.40;99.90;;;;;;5093803;28;20562;-66
2020/12/13 08:15:35;;;;;;;15.50;8.38;;;11.50;99.90;;;;;;5094430;28;20131;-65
2020/12/13 08:18:08;;;;;;;14.80;9.02;;;11.60;99.90;;;;;;5092473;28;20040;-65
2020/12/13 08:20:38;;;;;;;16.52;9.35;;;11.70;99.90;;;;;;5104376;28;20046;-66
2020/12/13 08:23:11;;;;;;;11.23;7.07;;;11.70;99.90;;;;;;5096650;28;20434;-64
2020/12/13 08:25:40;;;;;;;13.63;7.97;;;11.70;99.90;;;;;;5112060;28;20235;-66
2020/12/13 08:28:09;;;;;;;15.50;8.05;;;11.70;99.90;;;;;;5101815;28;20577;-65
2020/12/13 08:30:37;;;;;;;12.90;7.93;;;11.80;99.90;;;;;;5063455;28;20036;-66
2020/12/13 08:33:09;;;;;;;9.57;6.90;;;11.90;99.90;;;;;;5081762;28;20048;-66
2020/12/13 08:35:37;;;;;;;11.13;6.38;;;11.90;99.90;;;;;;5093889;28;20047;-66
2020/12/13 08:38:05;;;;;;;12.38;6.18;;;11.80;99.90;;;;;;5094707;28;20048;-66
2020/12/13 08:40:45;;;;;;;11.52;5.88;;;11.90;99.90;;;;;;5093983;28;20044;-65
2020/12/13 08:43:20;;;;;;;11.70;6.10;;;11.90;99.90;;;;;;5092216;28;20483;-64
2020/12/13 08:45:52;;;;;;;11.57;6.13;;;11.90;99.90;;;;;;5090125;28;20044;-66
2020/12/13 08:48:27;;;;;;;9.10;5.25;;;11.90;99.90;;;;;;5094045;28;20050;-65
2020/12/13 08:51:09;;;;;;;15.70;7.53;;;11.80;99.90;;;;;;5112174;28;20093;-65
2020/12/13 08:53:37;;;;;;;13.23;6.43;;;11.90;99.90;;;;;;5109295;28;20067;-65
2020/12/13 08:56:13;;;;;;;8.65;5.75;;;11.90;99.90;;;;;;5092969;28;20044;-65
2020/12/13 08:58:51;;;;;;;16.13;7.63;;;12.00;99.90;;;;;;5091817;28;20048;-65
2020/12/13 09:01:24;;;;;;;11.55;4.47;;;12.20;99.90;;;;;;5092733;28;20530;-65
2020/12/13 09:03:54;;;;;;;10.20;4.72;;;12.20;99.90;;;;;;5086101;28;20051;-65
2020/12/13 09:06:32;;;;;;;9.60;5.15;;;12.30;99.90;;;;;;5083350;28;20041;-65
2020/12/13 09:09:10;;;;;;;9.63;4.60;;;12.40;99.90;;;;;;5085413;28;20051;-66
2020/12/13 09:11:37;;;;;;;10.93;5.72;;;12.40;99.90;;;;;;5107762;28;20051;-64
2020/12/13 09:14:05;;;;;;;11.52;4.95;;;12.40;99.90;;;;;;5106190;28;20063;-66
2020/12/13 09:16:36;;;;;;;10.23;3.25;;;12.50;99.90;;;;;;5091175;28;20457;-66
2020/12/13 09:19:09;;;;;;;12.30;4.35;;;12.50;99.90;;;;;;5104155;28;20543;-66
2020/12/13 09:22:01;;;;;;;8.18;3.95;;;12.50;99.90;;;;;;5112290;28;20048;-66
2020/12/13 09:24:32;;;;;;;9.88;4.47;;;12.40;99.90;;;;;;5086038;28;20082;-67
2020/12/13 09:27:18;;;;;;;6.40;3.53;;;12.40;99.90;;;;;;5087239;28;20044;-66
2020/12/13 09:29:50;;;;;;;10.80;4.43;;;12.40;99.90;;;;;;5095867;28;20173;-65
2020/12/13 09:32:20;;;;;;;5.55;3.03;;;12.40;99.90;;;;;;5104595;28;20051;-65
2020/12/13 09:34:48;;;;;;;6.78;4.35;;;12.40;99.90;;;;;;5107885;27;20494;-65
2020/12/13 09:37:21;;;;;;;7.55;4.30;;;12.50;99.90;;;;;;5105446;28;20070;-65
2020/12/13 09:39:48;;;;;;;8.50;4.75;;;12.50;99.90;;;;;;5076696;28;20051;-66
2020/12/13 09:42:19;;;;;;;7.80;4.05;;;12.60;99.90;;;;;;5083569;28;20068;-65
2020/12/13 09:44:49;;;;;;;7.90;4.22;;;12.60;99.90;;;;;;5087818;28;20048;-66
2020/12/13 09:47:17;;;;;;;10.38;3.90;;;12.60;99.90;;;;;;5092439;28;20097;-65
2020/12/13 09:49:44;;;;;;;10.93;3.45;;;12.80;99.90;;;;;;5091368;28;20048;-64
2020/12/13 09:52:12;;;;;;;11.45;3.78;;;12.80;99.90;;;;;;5095599;28;20101;-66
2020/12/13 09:54:39;;;;;;;6.90;4.07;;;12.80;99.90;;;;;;5111980;28;20495;-65
2020/12/13 09:57:07;;;;;;;9.77;4.22;;;12.80;99.90;;;;;;5106493;28;20056;-65
2020/12/13 09:59:34;;;;;;;6.45;3.92;;;13.00;99.90;;;;;;5091372;28;20079;-66
2020/12/13 10:02:02;;;;;;;7.03;3.88;;;12.90;99.90;;;;;;5091443;28;20044;-67
2020/12/13 10:04:30;;;;;;;9.13;3.67;;;12.90;99.90;;;;;;5083574;28;20127;-65
2020/12/13 10:09:43;;;;;;;6.10;3.58;;;13.00;99.90;;;;;;5090365;28;20070;-64
2020/12/13 10:12:11;;;;;;;10.27;4.20;;;13.00;99.90;;;;;;5082938;28;20067;-66
2020/12/13 10:14:38;;;;;;;10.90;5.10;;;12.90;99.90;;;;;;5076585;28;20139;-65
2020/12/13 10:17:07;;;;;;;10.50;4.55;;;13.00;99.90;;;;;;5088647;28;20047;-66
2020/12/13 10:19:34;;;;;;;6.40;3.17;;;13.00;99.90;;;;;;5090087;28;20047;-64
2020/12/13 10:22:02;;;;;;;10.48;4.47;;;13.10;99.90;;;;;;5081747;28;20494;-66
2020/12/13 10:24:29;;;;;;;6.85;4.03;;;13.20;99.90;;;;;;5093175;28;20101;-65
2020/12/13 10:27:01;;;;;;;8.48;4.55;;;13.30;99.90;;;;;;5110042;28;20071;-65
2020/12/13 10:29:28;;;;;;;8.80;4.97;;;13.40;99.90;;;;;;5107600;27;20085;-65
2020/12/13 10:31:56;;;;;;;10.30;4.07;;;13.40;99.90;;;;;;5090098;28;20040;-65
2020/12/13 10:34:25;;;;;;;9.30;3.78;;;13.50;99.90;;;;;;5073441;28;20101;-65
2020/12/13 10:36:54;;;;;;;8.90;4.22;;;13.40;99.90;;;;;;5096051;28;20044;-65
2020/12/13 10:39:22;;;;;;;9.40;4.35;;;13.50;99.90;;;;;;5088946;28;20051;-65
2020/12/13 10:41:52;;;;;;;10.75;5.22;;;13.50;99.90;;;;;;5089718;28;20048;-65
2020/12/13 10:44:20;;;;;;;7.07;4.10;;;13.40;99.90;;;;;;5090033;28;20048;-65
2020/12/13 10:46:48;;;;;;;6.22;3.38;;;13.50;99.90;;;;;;5087217;28;20051;-66
2020/12/13 10:49:16;;;;;;;9.45;2.55;;;13.70;99.90;;;;;;5088993;28;20040;-66
2020/12/13 10:51:43;;;;;;;6.50;3.28;;;13.80;99.90;;;;;;5074238;28;20158;-65
2020/12/13 10:54:11;;;;;;;11.93;3.88;;;14.00;99.90;;;;;;5078976;28;20340;-64
2020/12/13 10:56:44;;;;;;;9.82;3.47;;;14.20;99.90;;;;;;5084898;28;20065;-65
2020/12/13 10:59:11;;;;;;;11.45;3.72;;;14.50;99.90;;;;;;5095340;28;20055;-64
2020/12/13 11:01:40;;;;;;;8.93;3.88;;;14.60;99.90;;;;;;5098677;28;20485;-65
2020/12/13 11:04:08;;;;;;;5.63;2.05;;;14.60;99.90;;;;;;5091562;28;20119;-66
2020/12/13 11:06:35;;;;;;;6.45;3.45;;;14.70;99.90;;;;;;5088862;28;20046;-66
2020/12/13 11:09:04;;;;;;;4.75;2.42;;;14.90;99.90;;;;;;5087988;28;20044;-60
2020/12/13 11:11:31;;;;;;;5.95;2.92;;;14.80;99.90;;;;;;5104986;28;20421;-66
2020/12/13 11:14:01;;;;;;;6.88;3.28;;;14.90;99.90;;;;;;5106953;28;20192;-65
2020/12/13 11:16:29;;;;;;;4.53;2.00;;;14.90;99.90;;;;;;5089777;28;20517;-65
2020/12/13 11:18:57;;;;;;;6.18;2.30;;;14.80;99.90;;;;;;5073575;28;20041;-64
2020/12/13 11:21:25;;;;;;;8.63;3.10;;;14.50;99.90;;;;;;5085493;28;20534;-65
2020/12/13 11:23:57;;;;;;;12.55;3.45;;;14.50;99.90;;;;;;5086372;28;20150;-64
2020/12/13 11:26:27;;;;;;;5.43;1.70;;;14.50;99.90;;;;;;5094722;28;20333;-64
2020/12/13 11:28:55;;;;;;;5.63;1.55;;;14.60;99.90;;;;;;5072876;28;20040;-65
2020/12/13 11:31:22;;;;;;;4.68;1.92;;;14.40;99.90;;;;;;5062586;28;20498;-65
2020/12/13 11:33:50;;;;;;;5.18;1.77;;;14.30;99.90;;;;;;5089300;28;20071;-65
2020/12/13 11:36:18;;;;;;;5.10;2.45;;;14.20;99.90;;;;;;5108513;28;20100;-66
2020/12/13 11:38:45;;;;;;;4.47;1.67;;;14.20;99.90;;;;;;5107630;28;20492;-64
2020/12/13 11:41:13;;;;;;;7.03;1.77;;;14.10;99.90;;;;;;5102671;28;20044;-65
2020/12/13 11:43:44;;;;;;;3.40;1.27;;;14.20;99.90;;;;;;5107515;28;20039;-63
2020/12/13 11:46:12;;;;;;;3.28;1.45;;;14.10;99.90;;;;;;5092235;28;20100;-65
2020/12/13 11:48:40;;;;;;;6.72;1.88;;;14.00;99.90;;;;;;5090874;28;20494;-65
2020/12/13 11:51:07;;;;;;;4.90;1.80;;;13.90;99.90;;;;;;5097278;28;20060;-64
2020/12/13 11:53:34;;;;;;;5.57;1.50;;;14.00;99.90;;;;;;5093597;28;20052;-65
2020/12/13 11:56:02;;;;;;;5.45;2.05;;;14.10;99.90;;;;;;5081541;28;20507;-65
2020/12/13 11:58:30;;;;;;;3.10;1.73;;;14.00;99.90;;;;;;5062615;28;20047;-65
2020/12/13 12:01:06;;;;;;;5.93;2.58;;;14.00;99.90;;;;;;5109815;28;20398;-65
2020/12/13 12:03:35;;;;;;;5.88;1.70;;;14.00;99.90;;;;;;5109349;28;20054;-65
2020/12/13 12:06:03;;;;;;;7.78;2.15;;;14.00;99.90;;;;;;5107133;28;20055;-65
2020/12/13 12:08:33;;;;;;;10.98;2.15;;;14.20;99.90;;;;;;5090747;28;20117;-65
2020/12/13 12:11:03;;;;;;;5.35;2.40;;;14.40;99.90;;;;;;5092723;28;20419;-65
2020/12/13 12:13:31;;;;;;;6.35;2.83;;;14.40;99.90;;;;;;5109898;28;20040;-65
2020/12/13 12:15:59;;;;;;;6.35;2.65;;;14.40;99.90;;;;;;5108307;28;20055;-65
2020/12/13 12:18:26;;;;;;;3.38;1.52;;;14.20;99.90;;;;;;5108227;28;20504;-64
2020/12/13 12:20:57;;;;;;;7.93;2.20;;;14.20;99.90;;;;;;5074596;28;20495;-65
2020/12/13 12:23:24;;;;;;;9.85;2.00;;;14.20;99.90;;;;;;5088464;28;20051;-64
2020/12/13 12:25:52;;;;;;;6.68;2.47;;;14.20;99.90;;;;;;5089923;28;20055;-65
2020/12/13 12:28:22;;;;;;;6.97;2.30;;;14.20;99.90;;;;;;5096266;28;20052;-65
2020/12/13 12:30:50;;;;;;;10.70;2.35;;;14.20;99.90;;;;;;5089905;28;20052;-66
2020/12/13 12:33:17;;;;;;;8.82;2.60;;;14.10;99.90;;;;;;5076165;28;20133;-65
2020/12/13 12:35:50;;;;;;;7.10;2.17;;;14.00;99.90;;;;;;5091967;28;20519;-65
2020/12/13 12:38:22;;;;;;;6.75;3.05;;;14.00;99.90;;;;;;5093054;28;20577;-65
2020/12/13 12:40:50;;;;;;;4.80;2.83;;;13.90;99.90;;;;;;5108081;28;20410;-65
2020/12/13 12:43:17;;;;;;;5.13;2.33;;;13.90;99.90;;;;;;5083707;28;20040;-64
2020/12/13 12:45:45;;;;;;;7.18;2.75;;;13.80;99.90;;;;;;5072244;28;20056;-65
2020/12/13 12:48:15;;;;;;;7.75;2.78;;;13.80;99.90;;;;;;5103005;28;20204;-64
2020/12/13 12:50:46;;;;;;;8.63;2.88;;;13.80;99.90;;;;;;5102283;28;20445;-65
2020/12/13 12:53:14;;;;;;;7.72;3.72;;;13.80;99.90;;;;;;5092506;28;20074;-65
2020/12/13 12:55:42;;;;;;;8.20;2.28;;;13.90;99.90;;;;;;5098284;28;20360;-65
2020/12/13 12:58:10;;;;;;;4.72;2.13;;;14.00;99.90;;;;;;5112047;28;20466;-64
2020/12/13 13:03:06;;;;;;;6.28;1.90;;;14.10;99.90;;;;;;5104258;28;20040;-65
2020/12/13 13:05:49;;;;;;;15.18;2.58;;;14.10;99.90;;;;;;5112776;28;20388;-65
2020/12/13 13:08:26;;;;;;;13.13;5.88;;;14.10;99.90;;;;;;5112090;28;20043;-65
2020/12/13 13:11:07;;;;;;;5.22;2.05;;;14.10;99.90;;;;;;5105548;28;20127;-65